sensor_id;sensor_type;location;lat;lon;timestamp;P1;durP1;ratioP1;P2;durP2;ratioP2
68700;SDS011;55682;51.114;5.882;2023-05-03T00:02:02;4.47;;;4.44;;
68700;SDS011;55682;51.114;5.882;2023-05-03T00:04:28;4.32;;;4.32;;
68700;SDS011;55682;51.114;5.882;2023-05-03T00:06:56;4.63;;;4.61;;
68700;SDS011;55682;51.114;5.882;2023-05-03T00:09:22;4.97;;;4.92;;
68700;SDS011;55682;51.114;5.882;2023-05-03T00:11:47;4.60;;;4.55;;
68700;SDS011;55682;51.114;5.882;2023-05-03T00:14:13;4.32;;;4.32;;
68700;SDS011;55682;51.114;5.882;2023-05-03T00:16:39;4.50;;;4.49;;
68700;SDS011;55682;51.114;5.882;2023-05-03T00:19:05;4.35;;;4.34;;
68700;SDS011;55682;51.114;5.882;2023-05-03T00:21:30;4.58;;;4.58;;
68700;SDS011;55682;51.114;5.882;2023-05-03T00:23:56;4.51;;;4.51;;
68700;SDS011;55682;51.114;5.882;2023-05-03T00:26:21;4.47;;;4.47;;
68700;SDS011;55682;51.114;5.882;2023-05-03T00:28:47;4.80;;;4.78;;
68700;SDS011;55682;51.114;5.882;2023-05-03T00:31:13;4.72;;;4.72;;
68700;SDS011;55682;51.114;5.882;2023-05-03T00:33:39;4.73;;;4.73;;
68700;SDS011;55682;51.114;5.882;2023-05-03T00:38:34;4.69;;;4.69;;
68700;SDS011;55682;51.114;5.882;2023-05-03T00:41:00;4.99;;;4.99;;
68700;SDS011;55682;51.114;5.882;2023-05-03T00:43:27;5.15;;;5.15;;
68700;SDS011;55682;51.114;5.882;2023-05-03T00:45:53;4.97;;;4.95;;
68700;SDS011;55682;51.114;5.882;2023-05-03T00:48:19;4.63;;;4.62;;
68700;SDS011;55682;51.114;5.882;2023-05-03T00:50:48;5.01;;;5.01;;
68700;SDS011;55682;51.114;5.882;2023-05-03T00:53:14;4.98;;;4.98;;
68700;SDS011;55682;51.114;5.882;2023-05-03T00:55:41;5.20;;;5.17;;
68700;SDS011;55682;51.114;5.882;2023-05-03T00:58:09;4.96;;;4.94;;
68700;SDS011;55682;51.114;5.882;2023-05-03T01:00:35;4.98;;;4.98;;
68700;SDS011;55682;51.114;5.882;2023-05-03T01:03:00;4.98;;;4.98;;
68700;SDS011;55682;51.114;5.882;2023-05-03T01:05:27;4.96;;;4.95;;
68700;SDS011;55682;51.114;5.882;2023-05-03T01:08:00;5.09;;;5.09;;
68700;SDS011;55682;51.114;5.882;2023-05-03T01:10:50;5.22;;;5.22;;
68700;SDS011;55682;51.114;5.882;2023-05-03T01:18:54;5.39;;;5.39;;
68700;SDS011;55682;51.114;5.882;2023-05-03T01:21:22;5.37;;;5.35;;
68700;SDS011;55682;51.114;5.882;2023-05-03T01:26:25;5.70;;;5.61;;
68700;SDS011;55682;51.114;5.882;2023-05-03T01:28:52;5.45;;;5.45;;
68700;SDS011;55682;51.114;5.882;2023-05-03T01:37:01;5.44;;;5.44;;
68700;SDS011;55682;51.114;5.882;2023-05-03T01:39:49;5.59;;;5.55;;
68700;SDS011;55682;51.114;5.882;2023-05-03T01:42:23;5.63;;;5.59;;
68700;SDS011;55682;51.114;5.882;2023-05-03T01:44:51;5.76;;;5.76;;
68700;SDS011;55682;51.114;5.882;2023-05-03T01:47:18;5.61;;;5.61;;
68700;SDS011;55682;51.114;5.882;2023-05-03T01:49:45;5.81;;;5.77;;
68700;SDS011;55682;51.114;5.882;2023-05-03T01:52:10;5.58;;;5.50;;
68700;SDS011;55682;51.114;5.882;2023-05-03T01:54:36;5.84;;;5.76;;
68700;SDS011;55682;51.114;5.882;2023-05-03T01:57:02;5.92;;;5.92;;
68700;SDS011;55682;51.114;5.882;2023-05-03T01:59:27;5.89;;;5.89;;
68700;SDS011;55682;51.114;5.882;2023-05-03T02:01:53;5.72;;;5.72;;
68700;SDS011;55682;51.114;5.882;2023-05-03T02:04:18;6.02;;;6.02;;
68700;SDS011;55682;51.114;5.882;2023-05-03T02:06:44;5.91;;;5.91;;
68700;SDS011;55682;51.114;5.882;2023-05-03T02:09:10;5.91;;;5.90;;
68700;SDS011;55682;51.114;5.882;2023-05-03T02:11:36;5.95;;;5.95;;
68700;SDS011;55682;51.114;5.882;2023-05-03T02:14:01;5.86;;;5.86;;
68700;SDS011;55682;51.114;5.882;2023-05-03T02:16:27;6.04;;;6.03;;
68700;SDS011;55682;51.114;5.882;2023-05-03T02:18:53;5.90;;;5.87;;
68700;SDS011;55682;51.114;5.882;2023-05-03T02:21:24;5.78;;;5.76;;
68700;SDS011;55682;51.114;5.882;2023-05-03T02:23:50;5.76;;;5.76;;
68700;SDS011;55682;51.114;5.882;2023-05-03T02:26:16;6.18;;;6.18;;
68700;SDS011;55682;51.114;5.882;2023-05-03T02:28:42;5.98;;;5.98;;
68700;SDS011;55682;51.114;5.882;2023-05-03T02:31:07;5.93;;;5.93;;
68700;SDS011;55682;51.114;5.882;2023-05-03T02:33:33;6.07;;;6.07;;
68700;SDS011;55682;51.114;5.882;2023-05-03T02:35:59;5.38;;;5.36;;
68700;SDS011;55682;51.114;5.882;2023-05-03T02:38:25;5.93;;;5.92;;
68700;SDS011;55682;51.114;5.882;2023-05-03T02:40:51;5.97;;;5.97;;
68700;SDS011;55682;51.114;5.882;2023-05-03T02:43:17;5.51;;;5.51;;
68700;SDS011;55682;51.114;5.882;2023-05-03T02:45:43;5.90;;;5.90;;
68700;SDS011;55682;51.114;5.882;2023-05-03T02:48:10;5.77;;;5.77;;
68700;SDS011;55682;51.114;5.882;2023-05-03T02:50:37;6.54;;;6.50;;
68700;SDS011;55682;51.114;5.882;2023-05-03T02:53:03;6.17;;;6.15;;
68700;SDS011;55682;51.114;5.882;2023-05-03T02:55:29;5.76;;;5.76;;
68700;SDS011;55682;51.114;5.882;2023-05-03T02:57:54;5.61;;;5.61;;
68700;SDS011;55682;51.114;5.882;2023-05-03T03:00:20;6.11;;;6.01;;
68700;SDS011;55682;51.114;5.882;2023-05-03T03:02:46;5.48;;;5.43;;
68700;SDS011;55682;51.114;5.882;2023-05-03T03:05:12;6.07;;;6.06;;
68700;SDS011;55682;51.114;5.882;2023-05-03T03:07:39;5.52;;;5.52;;
68700;SDS011;55682;51.114;5.882;2023-05-03T03:10:06;5.86;;;5.86;;
68700;SDS011;55682;51.114;5.882;2023-05-03T03:12:32;5.73;;;5.73;;
68700;SDS011;55682;51.114;5.882;2023-05-03T03:15:01;5.62;;;5.62;;
68700;SDS011;55682;51.114;5.882;2023-05-03T03:17:29;6.09;;;6.01;;
68700;SDS011;55682;51.114;5.882;2023-05-03T03:19:56;6.19;;;6.17;;
68700;SDS011;55682;51.114;5.882;2023-05-03T03:22:22;6.14;;;6.14;;
68700;SDS011;55682;51.114;5.882;2023-05-03T03:24:50;6.10;;;6.09;;
68700;SDS011;55682;51.114;5.882;2023-05-03T03:27:16;6.10;;;6.09;;
68700;SDS011;55682;51.114;5.882;2023-05-03T03:29:41;5.90;;;5.90;;
68700;SDS011;55682;51.114;5.882;2023-05-03T03:32:10;6.40;;;6.40;;
68700;SDS011;55682;51.114;5.882;2023-05-03T03:34:36;6.67;;;6.67;;
68700;SDS011;55682;51.114;5.882;2023-05-03T03:37:01;6.61;;;6.61;;
68700;SDS011;55682;51.114;5.882;2023-05-03T03:39:29;6.85;;;6.85;;
68700;SDS011;55682;51.114;5.882;2023-05-03T03:41:54;6.86;;;6.86;;
68700;SDS011;55682;51.114;5.882;2023-05-03T03:44:20;7.21;;;7.21;;
68700;SDS011;55682;51.114;5.882;2023-05-03T03:46:46;6.65;;;6.64;;
68700;SDS011;55682;51.114;5.882;2023-05-03T03:49:14;6.93;;;6.92;;
68700;SDS011;55682;51.114;5.882;2023-05-03T03:51:40;6.83;;;6.83;;
68700;SDS011;55682;51.114;5.882;2023-05-03T03:54:06;7.71;;;7.71;;
68700;SDS011;55682;51.114;5.882;2023-05-03T03:56:36;7.46;;;7.46;;
68700;SDS011;55682;51.114;5.882;2023-05-03T03:59:01;7.83;;;7.83;;
68700;SDS011;55682;51.114;5.882;2023-05-03T04:01:27;7.45;;;7.44;;
68700;SDS011;55682;51.114;5.882;2023-05-03T04:03:54;7.95;;;7.95;;
68700;SDS011;55682;51.114;5.882;2023-05-03T04:06:20;7.94;;;7.94;;
68700;SDS011;55682;51.114;5.882;2023-05-03T04:08:46;8.31;;;8.30;;
68700;SDS011;55682;51.114;5.882;2023-05-03T04:11:13;7.90;;;7.90;;
68700;SDS011;55682;51.114;5.882;2023-05-03T04:13:45;7.50;;;7.50;;
68700;SDS011;55682;51.114;5.882;2023-05-03T04:16:10;7.58;;;7.58;;
68700;SDS011;55682;51.114;5.882;2023-05-03T04:18:36;8.14;;;8.14;;
68700;SDS011;55682;51.114;5.882;2023-05-03T04:21:04;8.18;;;8.18;;
68700;SDS011;55682;51.114;5.882;2023-05-03T04:23:30;8.33;;;8.33;;
68700;SDS011;55682;51.114;5.882;2023-05-03T04:25:56;8.36;;;8.36;;
68700;SDS011;55682;51.114;5.882;2023-05-03T04:28:23;8.52;;;8.52;;
68700;SDS011;55682;51.114;5.882;2023-05-03T04:30:50;8.49;;;8.49;;
68700;SDS011;55682;51.114;5.882;2023-05-03T04:33:20;8.24;;;8.23;;
68700;SDS011;55682;51.114;5.882;2023-05-03T04:35:51;8.61;;;8.60;;
68700;SDS011;55682;51.114;5.882;2023-05-03T04:38:17;8.29;;;8.29;;
68700;SDS011;55682;51.114;5.882;2023-05-03T04:40:44;8.20;;;8.19;;
68700;SDS011;55682;51.114;5.882;2023-05-03T04:43:10;8.35;;;8.34;;
68700;SDS011;55682;51.114;5.882;2023-05-03T04:45:40;7.90;;;7.90;;
68700;SDS011;55682;51.114;5.882;2023-05-03T04:48:10;8.13;;;8.12;;
68700;SDS011;55682;51.114;5.882;2023-05-03T04:50:35;8.02;;;8.02;;
68700;SDS011;55682;51.114;5.882;2023-05-03T04:53:02;7.77;;;7.77;;
68700;SDS011;55682;51.114;5.882;2023-05-03T04:55:31;7.71;;;7.71;;
68700;SDS011;55682;51.114;5.882;2023-05-03T04:57:57;7.63;;;7.63;;
68700;SDS011;55682;51.114;5.882;2023-05-03T05:00:23;7.74;;;7.74;;
68700;SDS011;55682;51.114;5.882;2023-05-03T05:02:55;7.58;;;7.58;;
68700;SDS011;55682;51.114;5.882;2023-05-03T05:05:23;7.12;;;7.12;;
68700;SDS011;55682;51.114;5.882;2023-05-03T05:07:50;7.60;;;7.59;;
68700;SDS011;55682;51.114;5.882;2023-05-03T05:10:17;7.47;;;7.47;;
68700;SDS011;55682;51.114;5.882;2023-05-03T05:12:43;7.43;;;7.43;;
68700;SDS011;55682;51.114;5.882;2023-05-03T05:15:08;7.40;;;7.40;;
68700;SDS011;55682;51.114;5.882;2023-05-03T05:17:35;6.99;;;6.99;;
68700;SDS011;55682;51.114;5.882;2023-05-03T05:20:02;7.07;;;7.07;;
68700;SDS011;55682;51.114;5.882;2023-05-03T05:22:32;7.14;;;7.14;;
68700;SDS011;55682;51.114;5.882;2023-05-03T05:24:59;7.17;;;7.17;;
68700;SDS011;55682;51.114;5.882;2023-05-03T05:27:25;6.90;;;6.90;;
68700;SDS011;55682;51.114;5.882;2023-05-03T05:29:52;7.06;;;7.06;;
68700;SDS011;55682;51.114;5.882;2023-05-03T05:32:18;7.49;;;7.49;;
68700;SDS011;55682;51.114;5.882;2023-05-03T05:34:44;7.13;;;7.13;;
68700;SDS011;55682;51.114;5.882;2023-05-03T05:37:16;6.84;;;6.84;;
68700;SDS011;55682;51.114;5.882;2023-05-03T05:39:43;6.62;;;6.62;;
68700;SDS011;55682;51.114;5.882;2023-05-03T05:42:10;6.82;;;6.82;;
68700;SDS011;55682;51.114;5.882;2023-05-03T05:44:36;6.83;;;6.83;;
68700;SDS011;55682;51.114;5.882;2023-05-03T05:47:02;6.97;;;6.97;;
68700;SDS011;55682;51.114;5.882;2023-05-03T05:49:27;6.72;;;6.71;;
68700;SDS011;55682;51.114;5.882;2023-05-03T05:51:53;6.70;;;6.58;;
68700;SDS011;55682;51.114;5.882;2023-05-03T05:54:19;6.26;;;6.26;;
68700;SDS011;55682;51.114;5.882;2023-05-03T05:56:45;5.88;;;5.88;;
68700;SDS011;55682;51.114;5.882;2023-05-03T05:59:11;6.84;;;6.84;;
68700;SDS011;55682;51.114;5.882;2023-05-03T06:01:36;6.50;;;6.50;;
68700;SDS011;55682;51.114;5.882;2023-05-03T06:04:06;7.02;;;7.02;;
68700;SDS011;55682;51.114;5.882;2023-05-03T06:06:32;6.29;;;6.29;;
68700;SDS011;55682;51.114;5.882;2023-05-03T06:08:58;6.90;;;6.90;;
68700;SDS011;55682;51.114;5.882;2023-05-03T06:11:23;5.79;;;5.79;;
68700;SDS011;55682;51.114;5.882;2023-05-03T06:13:49;6.29;;;6.29;;
68700;SDS011;55682;51.114;5.882;2023-05-03T06:16:16;6.20;;;6.20;;
68700;SDS011;55682;51.114;5.882;2023-05-03T06:18:42;6.00;;;6.00;;
68700;SDS011;55682;51.114;5.882;2023-05-03T06:21:08;6.02;;;6.02;;
68700;SDS011;55682;51.114;5.882;2023-05-03T06:23:35;5.34;;;5.34;;
68700;SDS011;55682;51.114;5.882;2023-05-03T06:26:04;5.15;;;5.15;;
68700;SDS011;55682;51.114;5.882;2023-05-03T06:28:31;5.10;;;5.10;;
68700;SDS011;55682;51.114;5.882;2023-05-03T06:30:56;4.60;;;4.60;;
68700;SDS011;55682;51.114;5.882;2023-05-03T06:33:22;5.88;;;5.88;;
68700;SDS011;55682;51.114;5.882;2023-05-03T06:35:50;6.34;;;6.34;;
68700;SDS011;55682;51.114;5.882;2023-05-03T06:38:17;5.67;;;5.67;;
68700;SDS011;55682;51.114;5.882;2023-05-03T06:40:46;5.67;;;5.67;;
68700;SDS011;55682;51.114;5.882;2023-05-03T06:43:12;5.63;;;5.63;;
68700;SDS011;55682;51.114;5.882;2023-05-03T06:45:44;6.02;;;6.02;;
68700;SDS011;55682;51.114;5.882;2023-05-03T06:48:09;5.42;;;5.42;;
68700;SDS011;55682;51.114;5.882;2023-05-03T06:50:36;5.83;;;5.83;;
68700;SDS011;55682;51.114;5.882;2023-05-03T06:53:02;5.75;;;5.75;;
68700;SDS011;55682;51.114;5.882;2023-05-03T06:55:27;5.21;;;5.21;;
68700;SDS011;55682;51.114;5.882;2023-05-03T06:57:53;5.05;;;5.05;;
68700;SDS011;55682;51.114;5.882;2023-05-03T07:00:19;4.93;;;4.93;;
68700;SDS011;55682;51.114;5.882;2023-05-03T07:02:47;5.09;;;5.09;;
68700;SDS011;55682;51.114;5.882;2023-05-03T07:05:13;5.23;;;5.23;;
68700;SDS011;55682;51.114;5.882;2023-05-03T07:07:38;4.91;;;4.91;;
68700;SDS011;55682;51.114;5.882;2023-05-03T07:10:04;4.66;;;4.66;;
68700;SDS011;55682;51.114;5.882;2023-05-03T07:12:30;4.53;;;4.53;;
68700;SDS011;55682;51.114;5.882;2023-05-03T07:14:56;5.65;;;5.65;;
68700;SDS011;55682;51.114;5.882;2023-05-03T07:17:22;5.09;;;5.09;;
68700;SDS011;55682;51.114;5.882;2023-05-03T07:19:48;4.77;;;4.77;;
68700;SDS011;55682;51.114;5.882;2023-05-03T07:22:15;4.58;;;4.58;;
68700;SDS011;55682;51.114;5.882;2023-05-03T07:24:41;5.17;;;5.17;;
68700;SDS011;55682;51.114;5.882;2023-05-03T07:27:07;5.21;;;5.21;;
68700;SDS011;55682;51.114;5.882;2023-05-03T07:29:33;5.41;;;5.41;;
68700;SDS011;55682;51.114;5.882;2023-05-03T07:31:59;5.17;;;5.17;;
68700;SDS011;55682;51.114;5.882;2023-05-03T07:34:25;4.91;;;4.91;;
68700;SDS011;55682;51.114;5.882;2023-05-03T07:36:51;5.98;;;5.98;;
68700;SDS011;55682;51.114;5.882;2023-05-03T07:39:16;5.47;;;5.47;;
68700;SDS011;55682;51.114;5.882;2023-05-03T07:41:42;5.82;;;5.82;;
68700;SDS011;55682;51.114;5.882;2023-05-03T07:44:08;5.86;;;5.86;;
68700;SDS011;55682;51.114;5.882;2023-05-03T07:46:34;5.34;;;5.34;;
68700;SDS011;55682;51.114;5.882;2023-05-03T07:49:00;5.25;;;5.25;;
68700;SDS011;55682;51.114;5.882;2023-05-03T07:51:26;6.00;;;6.00;;
68700;SDS011;55682;51.114;5.882;2023-05-03T07:53:53;5.21;;;5.21;;
68700;SDS011;55682;51.114;5.882;2023-05-03T07:56:20;4.97;;;4.97;;
68700;SDS011;55682;51.114;5.882;2023-05-03T07:58:46;6.32;;;6.32;;
68700;SDS011;55682;51.114;5.882;2023-05-03T08:01:12;5.25;;;5.25;;
68700;SDS011;55682;51.114;5.882;2023-05-03T08:03:38;5.96;;;5.95;;
68700;SDS011;55682;51.114;5.882;2023-05-03T08:06:03;4.31;;;4.31;;
68700;SDS011;55682;51.114;5.882;2023-05-03T08:08:29;4.32;;;4.32;;
68700;SDS011;55682;51.114;5.882;2023-05-03T08:10:56;6.09;;;6.08;;
68700;SDS011;55682;51.114;5.882;2023-05-03T08:13:21;5.26;;;5.26;;
68700;SDS011;55682;51.114;5.882;2023-05-03T08:15:47;4.22;;;4.22;;
68700;SDS011;55682;51.114;5.882;2023-05-03T08:18:13;4.64;;;4.64;;
68700;SDS011;55682;51.114;5.882;2023-05-03T08:20:39;4.96;;;4.96;;
68700;SDS011;55682;51.114;5.882;2023-05-03T08:23:06;5.64;;;5.64;;
68700;SDS011;55682;51.114;5.882;2023-05-03T08:25:32;5.35;;;5.35;;
68700;SDS011;55682;51.114;5.882;2023-05-03T08:27:58;4.94;;;4.94;;
68700;SDS011;55682;51.114;5.882;2023-05-03T08:30:24;5.26;;;5.26;;
68700;SDS011;55682;51.114;5.882;2023-05-03T08:32:50;5.61;;;5.61;;
68700;SDS011;55682;51.114;5.882;2023-05-03T08:35:16;5.01;;;5.01;;
68700;SDS011;55682;51.114;5.882;2023-05-03T08:37:42;4.63;;;4.63;;
68700;SDS011;55682;51.114;5.882;2023-05-03T08:40:09;5.49;;;5.49;;
68700;SDS011;55682;51.114;5.882;2023-05-03T08:42:38;4.76;;;4.76;;
68700;SDS011;55682;51.114;5.882;2023-05-03T08:45:11;5.52;;;5.52;;
68700;SDS011;55682;51.114;5.882;2023-05-03T08:47:40;4.97;;;4.97;;
68700;SDS011;55682;51.114;5.882;2023-05-03T08:50:09;4.06;;;4.06;;
68700;SDS011;55682;51.114;5.882;2023-05-03T08:52:39;5.33;;;5.33;;
68700;SDS011;55682;51.114;5.882;2023-05-03T08:55:07;5.05;;;5.05;;
68700;SDS011;55682;51.114;5.882;2023-05-03T08:57:35;4.83;;;4.83;;
68700;SDS011;55682;51.114;5.882;2023-05-03T09:00:01;6.32;;;6.32;;
68700;SDS011;55682;51.114;5.882;2023-05-03T09:02:30;4.90;;;4.90;;
68700;SDS011;55682;51.114;5.882;2023-05-03T09:05:01;5.81;;;5.81;;
68700;SDS011;55682;51.114;5.882;2023-05-03T09:07:26;4.71;;;4.71;;
68700;SDS011;55682;51.114;5.882;2023-05-03T09:09:52;5.15;;;5.15;;
68700;SDS011;55682;51.114;5.882;2023-05-03T09:12:37;5.86;;;5.86;;
68700;SDS011;55682;51.114;5.882;2023-05-03T09:15:05;5.48;;;5.48;;
68700;SDS011;55682;51.114;5.882;2023-05-03T09:17:31;6.03;;;6.03;;
68700;SDS011;55682;51.114;5.882;2023-05-03T09:19:57;6.49;;;6.49;;
68700;SDS011;55682;51.114;5.882;2023-05-03T09:22:26;5.18;;;5.18;;
68700;SDS011;55682;51.114;5.882;2023-05-03T09:24:53;5.50;;;5.50;;
68700;SDS011;55682;51.114;5.882;2023-05-03T09:27:20;5.54;;;5.50;;
68700;SDS011;55682;51.114;5.882;2023-05-03T09:29:48;5.69;;;5.69;;
68700;SDS011;55682;51.114;5.882;2023-05-03T09:32:14;5.56;;;5.56;;
68700;SDS011;55682;51.114;5.882;2023-05-03T09:34:41;6.18;;;6.18;;
68700;SDS011;55682;51.114;5.882;2023-05-03T09:37:08;5.32;;;5.32;;
68700;SDS011;55682;51.114;5.882;2023-05-03T09:39:33;4.92;;;4.92;;
68700;SDS011;55682;51.114;5.882;2023-05-03T09:42:16;5.49;;;5.49;;
68700;SDS011;55682;51.114;5.882;2023-05-03T09:47:13;5.84;;;5.84;;
68700;SDS011;55682;51.114;5.882;2023-05-03T09:49:39;5.54;;;5.54;;
68700;SDS011;55682;51.114;5.882;2023-05-03T09:52:05;4.69;;;4.69;;
68700;SDS011;55682;51.114;5.882;2023-05-03T09:54:32;4.74;;;4.74;;
68700;SDS011;55682;51.114;5.882;2023-05-03T09:56:59;5.84;;;5.84;;
68700;SDS011;55682;51.114;5.882;2023-05-03T09:59:28;6.81;;;6.81;;
68700;SDS011;55682;51.114;5.882;2023-05-03T10:01:55;5.05;;;5.05;;
68700;SDS011;55682;51.114;5.882;2023-05-03T10:04:26;4.47;;;4.47;;
68700;SDS011;55682;51.114;5.882;2023-05-03T10:06:57;5.94;;;5.94;;
68700;SDS011;55682;51.114;5.882;2023-05-03T10:09:58;4.66;;;4.66;;
68700;SDS011;55682;51.114;5.882;2023-05-03T10:12:17;4.64;;;4.64;;
68700;SDS011;55682;51.114;5.882;2023-05-03T10:14:45;5.40;;;5.40;;
68700;SDS011;55682;51.114;5.882;2023-05-03T10:17:26;6.19;;;6.19;;
68700;SDS011;55682;51.114;5.882;2023-05-03T10:23:05;5.20;;;5.20;;
68700;SDS011;55682;51.114;5.882;2023-05-03T10:25:28;6.52;;;6.52;;
68700;SDS011;55682;51.114;5.882;2023-05-03T10:28:04;6.02;;;6.02;;
68700;SDS011;55682;51.114;5.882;2023-05-03T10:30:32;5.18;;;5.18;;
68700;SDS011;55682;51.114;5.882;2023-05-03T10:35:34;6.54;;;6.54;;
68700;SDS011;55682;51.114;5.882;2023-05-03T10:38:18;6.74;;;6.74;;
68700;SDS011;55682;51.114;5.882;2023-05-03T10:40:46;6.70;;;6.70;;
68700;SDS011;55682;51.114;5.882;2023-05-03T10:45:56;5.82;;;5.82;;
68700;SDS011;55682;51.114;5.882;2023-05-03T10:48:22;5.12;;;5.12;;
68700;SDS011;55682;51.114;5.882;2023-05-03T10:50:47;4.93;;;4.93;;
68700;SDS011;55682;51.114;5.882;2023-05-03T10:56:09;4.47;;;4.47;;
68700;SDS011;55682;51.114;5.882;2023-05-03T10:58:37;4.73;;;4.73;;
68700;SDS011;55682;51.114;5.882;2023-05-03T11:01:11;5.09;;;5.09;;
68700;SDS011;55682;51.114;5.882;2023-05-03T11:03:42;6.29;;;6.29;;
68700;SDS011;55682;51.114;5.882;2023-05-03T11:08:56;6.71;;;6.71;;
68700;SDS011;55682;51.114;5.882;2023-05-03T11:11:22;6.09;;;6.09;;
68700;SDS011;55682;51.114;5.882;2023-05-03T11:13:51;4.82;;;4.82;;
68700;SDS011;55682;51.114;5.882;2023-05-03T11:16:17;4.79;;;4.79;;
68700;SDS011;55682;51.114;5.882;2023-05-03T11:18:44;5.32;;;5.32;;
68700;SDS011;55682;51.114;5.882;2023-05-03T11:21:10;6.17;;;6.17;;
68700;SDS011;55682;51.114;5.882;2023-05-03T11:23:37;5.59;;;5.59;;
68700;SDS011;55682;51.114;5.882;2023-05-03T11:26:10;5.29;;;5.29;;
68700;SDS011;55682;51.114;5.882;2023-05-03T11:28:36;4.43;;;4.43;;
68700;SDS011;55682;51.114;5.882;2023-05-03T11:31:03;5.43;;;5.43;;
68700;SDS011;55682;51.114;5.882;2023-05-03T11:33:31;5.73;;;5.73;;
68700;SDS011;55682;51.114;5.882;2023-05-03T11:36:02;4.79;;;4.79;;
68700;SDS011;55682;51.114;5.882;2023-05-03T11:38:34;5.87;;;5.87;;
68700;SDS011;55682;51.114;5.882;2023-05-03T11:41:12;5.65;;;5.65;;
68700;SDS011;55682;51.114;5.882;2023-05-03T11:43:39;4.55;;;4.55;;
68700;SDS011;55682;51.114;5.882;2023-05-03T11:46:06;5.02;;;5.02;;
68700;SDS011;55682;51.114;5.882;2023-05-03T11:48:33;5.45;;;5.45;;
68700;SDS011;55682;51.114;5.882;2023-05-03T11:50:59;4.63;;;4.63;;
68700;SDS011;55682;51.114;5.882;2023-05-03T11:53:32;5.28;;;5.28;;
68700;SDS011;55682;51.114;5.882;2023-05-03T11:55:57;5.80;;;5.80;;
68700;SDS011;55682;51.114;5.882;2023-05-03T11:58:25;5.51;;;5.51;;
68700;SDS011;55682;51.114;5.882;2023-05-03T12:00:52;5.56;;;5.56;;
68700;SDS011;55682;51.114;5.882;2023-05-03T12:03:20;4.79;;;4.79;;
68700;SDS011;55682;51.114;5.882;2023-05-03T12:05:48;5.93;;;5.93;;
68700;SDS011;55682;51.114;5.882;2023-05-03T12:08:15;5.50;;;5.50;;
68700;SDS011;55682;51.114;5.882;2023-05-03T12:10:43;5.08;;;5.08;;
68700;SDS011;55682;51.114;5.882;2023-05-03T12:13:09;5.48;;;5.48;;
68700;SDS011;55682;51.114;5.882;2023-05-03T12:15:36;4.98;;;4.98;;
68700;SDS011;55682;51.114;5.882;2023-05-03T12:18:07;5.22;;;5.22;;
68700;SDS011;55682;51.114;5.882;2023-05-03T12:20:34;4.90;;;4.90;;
68700;SDS011;55682;51.114;5.882;2023-05-03T12:23:02;5.49;;;5.49;;
68700;SDS011;55682;51.114;5.882;2023-05-03T12:25:30;5.88;;;5.88;;
68700;SDS011;55682;51.114;5.882;2023-05-03T12:28:00;5.86;;;5.86;;
68700;SDS011;55682;51.114;5.882;2023-05-03T12:30:28;5.02;;;5.02;;
68700;SDS011;55682;51.114;5.882;2023-05-03T12:32:54;5.08;;;5.08;;
68700;SDS011;55682;51.114;5.882;2023-05-03T12:35:20;4.46;;;4.46;;
68700;SDS011;55682;51.114;5.882;2023-05-03T12:37:47;5.48;;;5.48;;
68700;SDS011;55682;51.114;5.882;2023-05-03T12:40:13;4.99;;;4.99;;
68700;SDS011;55682;51.114;5.882;2023-05-03T12:42:40;4.98;;;4.98;;
68700;SDS011;55682;51.114;5.882;2023-05-03T12:45:08;5.87;;;5.87;;
68700;SDS011;55682;51.114;5.882;2023-05-03T12:47:34;5.38;;;5.38;;
68700;SDS011;55682;51.114;5.882;2023-05-03T12:50:01;5.47;;;5.47;;
68700;SDS011;55682;51.114;5.882;2023-05-03T12:52:28;5.76;;;5.76;;
68700;SDS011;55682;51.114;5.882;2023-05-03T12:54:56;4.97;;;4.93;;
68700;SDS011;55682;51.114;5.882;2023-05-03T12:57:22;6.23;;;6.23;;
68700;SDS011;55682;51.114;5.882;2023-05-03T12:59:47;6.21;;;6.21;;
68700;SDS011;55682;51.114;5.882;2023-05-03T13:02:18;6.03;;;6.03;;
68700;SDS011;55682;51.114;5.882;2023-05-03T13:04:45;5.84;;;5.84;;
68700;SDS011;55682;51.114;5.882;2023-05-03T13:07:11;6.13;;;6.13;;
68700;SDS011;55682;51.114;5.882;2023-05-03T13:09:39;5.58;;;5.58;;
68700;SDS011;55682;51.114;5.882;2023-05-03T13:12:05;4.28;;;4.28;;
68700;SDS011;55682;51.114;5.882;2023-05-03T13:14:31;4.57;;;4.57;;
68700;SDS011;55682;51.114;5.882;2023-05-03T13:16:56;4.68;;;4.68;;
68700;SDS011;55682;51.114;5.882;2023-05-03T13:19:24;5.20;;;5.20;;
68700;SDS011;55682;51.114;5.882;2023-05-03T13:21:50;4.79;;;4.79;;
68700;SDS011;55682;51.114;5.882;2023-05-03T13:24:15;5.21;;;5.21;;
68700;SDS011;55682;51.114;5.882;2023-05-03T13:26:41;5.86;;;5.86;;
68700;SDS011;55682;51.114;5.882;2023-05-03T13:29:07;5.20;;;5.20;;
68700;SDS011;55682;51.114;5.882;2023-05-03T13:31:33;4.02;;;4.02;;
68700;SDS011;55682;51.114;5.882;2023-05-03T13:33:59;4.68;;;4.68;;
68700;SDS011;55682;51.114;5.882;2023-05-03T13:36:25;4.94;;;4.94;;
68700;SDS011;55682;51.114;5.882;2023-05-03T13:38:52;5.59;;;5.59;;
68700;SDS011;55682;51.114;5.882;2023-05-03T13:41:18;5.48;;;5.48;;
68700;SDS011;55682;51.114;5.882;2023-05-03T13:43:44;5.63;;;5.63;;
68700;SDS011;55682;51.114;5.882;2023-05-03T13:46:11;5.61;;;5.61;;
68700;SDS011;55682;51.114;5.882;2023-05-03T13:48:37;4.99;;;4.99;;
68700;SDS011;55682;51.114;5.882;2023-05-03T13:51:06;4.50;;;4.50;;
68700;SDS011;55682;51.114;5.882;2023-05-03T13:53:36;3.91;;;3.91;;
68700;SDS011;55682;51.114;5.882;2023-05-03T13:56:02;5.09;;;5.09;;
68700;SDS011;55682;51.114;5.882;2023-05-03T13:58:29;4.94;;;4.94;;
68700;SDS011;55682;51.114;5.882;2023-05-03T14:00:55;6.32;;;6.32;;
68700;SDS011;55682;51.114;5.882;2023-05-03T14:03:20;5.97;;;5.97;;
68700;SDS011;55682;51.114;5.882;2023-05-03T14:05:46;5.67;;;5.67;;
68700;SDS011;55682;51.114;5.882;2023-05-03T14:08:12;6.17;;;6.17;;
68700;SDS011;55682;51.114;5.882;2023-05-03T14:10:37;5.70;;;5.70;;
68700;SDS011;55682;51.114;5.882;2023-05-03T14:13:04;5.77;;;5.77;;
68700;SDS011;55682;51.114;5.882;2023-05-03T14:15:30;5.60;;;5.60;;
68700;SDS011;55682;51.114;5.882;2023-05-03T14:17:55;5.52;;;5.52;;
68700;SDS011;55682;51.114;5.882;2023-05-03T14:20:21;4.69;;;4.69;;
68700;SDS011;55682;51.114;5.882;2023-05-03T14:22:46;4.55;;;4.55;;
68700;SDS011;55682;51.114;5.882;2023-05-03T14:25:12;5.16;;;5.16;;
68700;SDS011;55682;51.114;5.882;2023-05-03T14:27:37;5.26;;;5.26;;
68700;SDS011;55682;51.114;5.882;2023-05-03T14:30:03;3.75;;;3.75;;
68700;SDS011;55682;51.114;5.882;2023-05-03T14:32:30;4.81;;;4.81;;
68700;SDS011;55682;51.114;5.882;2023-05-03T14:34:56;4.71;;;4.71;;
68700;SDS011;55682;51.114;5.882;2023-05-03T14:37:22;5.47;;;5.47;;
68700;SDS011;55682;51.114;5.882;2023-05-03T14:39:48;5.60;;;5.60;;
68700;SDS011;55682;51.114;5.882;2023-05-03T14:42:13;5.88;;;5.88;;
68700;SDS011;55682;51.114;5.882;2023-05-03T14:44:39;4.45;;;4.45;;
68700;SDS011;55682;51.114;5.882;2023-05-03T14:47:05;6.19;;;6.19;;
68700;SDS011;55682;51.114;5.882;2023-05-03T14:49:31;6.70;;;6.70;;
68700;SDS011;55682;51.114;5.882;2023-05-03T14:52:07;6.70;;;6.70;;
68700;SDS011;55682;51.114;5.882;2023-05-03T14:54:33;5.66;;;5.66;;
68700;SDS011;55682;51.114;5.882;2023-05-03T14:57:02;5.58;;;5.58;;
68700;SDS011;55682;51.114;5.882;2023-05-03T14:59:31;4.72;;;4.72;;
68700;SDS011;55682;51.114;5.882;2023-05-03T15:01:57;4.99;;;4.99;;
68700;SDS011;55682;51.114;5.882;2023-05-03T15:04:23;5.13;;;5.13;;
68700;SDS011;55682;51.114;5.882;2023-05-03T15:06:49;4.98;;;4.98;;
68700;SDS011;55682;51.114;5.882;2023-05-03T15:09:15;5.46;;;5.46;;
68700;SDS011;55682;51.114;5.882;2023-05-03T15:11:42;5.46;;;5.46;;
68700;SDS011;55682;51.114;5.882;2023-05-03T15:14:08;6.65;;;6.65;;
68700;SDS011;55682;51.114;5.882;2023-05-03T15:16:34;6.14;;;6.14;;
68700;SDS011;55682;51.114;5.882;2023-05-03T15:19:00;5.03;;;5.01;;
68700;SDS011;55682;51.114;5.882;2023-05-03T15:21:25;5.86;;;5.86;;